sensor_id;sensor_type;location;lat;lon;timestamp;P1;durP1;ratioP1;P2;durP2;ratioP2
5454;SDS011;2750;49.050;9.250;2023-09-07T00:01:31;5.97;;;5.37;;
5454;SDS011;2750;49.050;9.250;2023-09-07T00:06:33;7.33;;;4.30;;
5454;SDS011;2750;49.050;9.250;2023-09-07T00:11:36;5.30;;;4.63;;
5454;SDS011;2750;49.050;9.250;2023-09-07T00:16:38;4.93;;;3.77;;
5454;SDS011;2750;49.050;9.250;2023-09-07T00:21:40;5.67;;;5.10;;
5454;SDS011;2750;49.050;9.250;2023-09-07T00:26:43;7.50;;;6.13;;
5454;SDS011;2750;49.050;9.250;2023-09-07T00:31:44;5.97;;;5.43;;
5454;SDS011;2750;49.050;9.250;2023-09-07T00:36:46;7.00;;;5.67;;
5454;SDS011;2750;49.050;9.250;2023-09-07T00:41:49;5.80;;;5.20;;
5454;SDS011;2750;49.050;9.250;2023-09-07T00:46:50;8.37;;;5.70;;
5454;SDS011;2750;49.050;9.250;2023-09-07T00:51:52;8.77;;;5.73;;
5454;SDS011;2750;49.050;9.250;2023-09-07T00:56:55;6.00;;;5.40;;
5454;SDS011;2750;49.050;9.250;2023-09-07T01:01:57;7.30;;;5.37;;
5454;SDS011;2750;49.050;9.250;2023-09-07T01:07:00;7.63;;;5.20;;
5454;SDS011;2750;49.050;9.250;2023-09-07T01:12:13;5.93;;;4.67;;
5454;SDS011;2750;49.050;9.250;2023-09-07T01:17:15;7.03;;;5.40;;
5454;SDS011;2750;49.050;9.250;2023-09-07T01:22:19;5.43;;;4.93;;
5454;SDS011;2750;49.050;9.250;2023-09-07T01:27:22;6.40;;;5.67;;
5454;SDS011;2750;49.050;9.250;2023-09-07T01:32:24;6.47;;;5.50;;
5454;SDS011;2750;49.050;9.250;2023-09-07T01:37:28;6.23;;;4.77;;
5454;SDS011;2750;49.050;9.250;2023-09-07T01:42:30;6.73;;;5.03;;
5454;SDS011;2750;49.050;9.250;2023-09-07T01:47:32;5.03;;;4.53;;
5454;SDS011;2750;49.050;9.250;2023-09-07T01:52:35;6.93;;;5.10;;
5454;SDS011;2750;49.050;9.250;2023-09-07T01:57:36;5.47;;;4.97;;
5454;SDS011;2750;49.050;9.250;2023-09-07T02:02:38;6.17;;;5.57;;
5454;SDS011;2750;49.050;9.250;2023-09-07T02:07:41;6.70;;;4.80;;
5454;SDS011;2750;49.050;9.250;2023-09-07T02:12:45;5.60;;;4.93;;
5454;SDS011;2750;49.050;9.250;2023-09-07T02:17:46;5.27;;;4.83;;
5454;SDS011;2750;49.050;9.250;2023-09-07T02:22:49;6.37;;;5.53;;
5454;SDS011;2750;49.050;9.250;2023-09-07T02:27:51;5.53;;;5.03;;
5454;SDS011;2750;49.050;9.250;2023-09-07T02:32:53;6.47;;;5.30;;
5454;SDS011;2750;49.050;9.250;2023-09-07T02:37:56;6.17;;;5.63;;
5454;SDS011;2750;49.050;9.250;2023-09-07T02:42:57;8.10;;;5.73;;
5454;SDS011;2750;49.050;9.250;2023-09-07T02:47:59;6.83;;;5.67;;
5454;SDS011;2750;49.050;9.250;2023-09-07T02:53:02;5.73;;;5.23;;
5454;SDS011;2750;49.050;9.250;2023-09-07T02:58:04;6.20;;;5.60;;
5454;SDS011;2750;49.050;9.250;2023-09-07T03:03:06;7.83;;;6.10;;
5454;SDS011;2750;49.050;9.250;2023-09-07T03:08:09;7.03;;;6.03;;
5454;SDS011;2750;49.050;9.250;2023-09-07T03:13:11;8.50;;;5.77;;
5454;SDS011;2750;49.050;9.250;2023-09-07T03:18:12;6.60;;;6.00;;
5454;SDS011;2750;49.050;9.250;2023-09-07T03:23:15;10.53;;;5.87;;
5454;SDS011;2750;49.050;9.250;2023-09-07T03:28:17;7.47;;;6.00;;
5454;SDS011;2750;49.050;9.250;2023-09-07T03:33:18;9.07;;;6.67;;
5454;SDS011;2750;49.050;9.250;2023-09-07T03:38:21;7.90;;;6.27;;
5454;SDS011;2750;49.050;9.250;2023-09-07T03:43:23;8.07;;;6.87;;
5454;SDS011;2750;49.050;9.250;2023-09-07T03:48:24;9.17;;;6.53;;
5454;SDS011;2750;49.050;9.250;2023-09-07T03:53:27;7.40;;;6.80;;
5454;SDS011;2750;49.050;9.250;2023-09-07T03:58:29;7.30;;;6.60;;
5454;SDS011;2750;49.050;9.250;2023-09-07T04:03:30;7.93;;;6.40;;
5454;SDS011;2750;49.050;9.250;2023-09-07T04:08:33;6.83;;;6.23;;
5454;SDS011;2750;49.050;9.250;2023-09-07T04:13:35;6.87;;;6.17;;
5454;SDS011;2750;49.050;9.250;2023-09-07T04:18:37;7.93;;;6.97;;
5454;SDS011;2750;49.050;9.250;2023-09-07T04:23:40;9.73;;;7.03;;
5454;SDS011;2750;49.050;9.250;2023-09-07T04:28:42;7.63;;;6.93;;
5454;SDS011;2750;49.050;9.250;2023-09-07T04:33:43;8.27;;;7.13;;
5454;SDS011;2750;49.050;9.250;2023-09-07T04:38:46;9.00;;;7.17;;
5454;SDS011;2750;49.050;9.250;2023-09-07T04:43:48;9.93;;;7.30;;
5454;SDS011;2750;49.050;9.250;2023-09-07T04:48:49;8.77;;;7.87;;
5454;SDS011;2750;49.050;9.250;2023-09-07T04:53:52;7.80;;;6.60;;
5454;SDS011;2750;49.050;9.250;2023-09-07T04:58:54;10.27;;;7.13;;
5454;SDS011;2750;49.050;9.250;2023-09-07T05:03:55;8.93;;;6.50;;
5454;SDS011;2750;49.050;9.250;2023-09-07T05:08:58;9.70;;;7.20;;
5454;SDS011;2750;49.050;9.250;2023-09-07T05:14:00;7.27;;;5.77;;
5454;SDS011;2750;49.050;9.250;2023-09-07T05:19:02;5.03;;;4.53;;
5454;SDS011;2750;49.050;9.250;2023-09-07T05:24:05;5.87;;;4.40;;
5454;SDS011;2750;49.050;9.250;2023-09-07T05:29:07;7.60;;;4.43;;
5454;SDS011;2750;49.050;9.250;2023-09-07T05:34:09;6.33;;;4.77;;
5454;SDS011;2750;49.050;9.250;2023-09-07T05:39:11;6.50;;;5.43;;
5454;SDS011;2750;49.050;9.250;2023-09-07T05:44:13;5.77;;;5.13;;
5454;SDS011;2750;49.050;9.250;2023-09-07T05:49:15;7.00;;;6.30;;
5454;SDS011;2750;49.050;9.250;2023-09-07T05:54:18;7.67;;;6.07;;
5454;SDS011;2750;49.050;9.250;2023-09-07T05:59:19;7.10;;;5.97;;
5454;SDS011;2750;49.050;9.250;2023-09-07T06:04:21;7.23;;;5.67;;
5454;SDS011;2750;49.050;9.250;2023-09-07T06:09:24;7.22;;;5.68;;
5454;SDS011;2750;49.050;9.250;2023-09-07T06:14:25;7.40;;;6.68;;
5454;SDS011;2750;49.050;9.250;2023-09-07T06:19:27;7.85;;;5.47;;
5454;SDS011;2750;49.050;9.250;2023-09-07T06:24:30;9.23;;;6.00;;
5454;SDS011;2750;49.050;9.250;2023-09-07T06:29:31;8.17;;;6.13;;
5454;SDS011;2750;49.050;9.250;2023-09-07T06:34:33;7.80;;;6.73;;
5454;SDS011;2750;49.050;9.250;2023-09-07T06:39:36;7.97;;;6.23;;
5454;SDS011;2750;49.050;9.250;2023-09-07T06:44:37;8.20;;;7.40;;
5454;SDS011;2750;49.050;9.250;2023-09-07T06:49:39;7.57;;;6.87;;
5454;SDS011;2750;49.050;9.250;2023-09-07T06:54:42;8.63;;;6.90;;
5454;SDS011;2750;49.050;9.250;2023-09-07T06:59:43;9.03;;;6.83;;
5454;SDS011;2750;49.050;9.250;2023-09-07T07:04:45;8.53;;;6.70;;
5454;SDS011;2750;49.050;9.250;2023-09-07T07:09:48;7.53;;;6.90;;
5454;SDS011;2750;49.050;9.250;2023-09-07T07:14:50;9.55;;;6.93;;
5454;SDS011;2750;49.050;9.250;2023-09-07T07:19:52;6.65;;;5.18;;
5454;SDS011;2750;49.050;9.250;2023-09-07T07:24:56;6.93;;;5.47;;
5454;SDS011;2750;49.050;9.250;2023-09-07T07:29:59;5.90;;;5.30;;
5454;SDS011;2750;49.050;9.250;2023-09-07T07:35:01;6.20;;;5.60;;
5454;SDS011;2750;49.050;9.250;2023-09-07T07:40:05;6.05;;;5.55;;
5454;SDS011;2750;49.050;9.250;2023-09-07T07:45:08;5.88;;;5.38;;
5454;SDS011;2750;49.050;9.250;2023-09-07T07:50:10;5.05;;;4.50;;
5454;SDS011;2750;49.050;9.250;2023-09-07T07:55:13;6.20;;;5.70;;
5454;SDS011;2750;49.050;9.250;2023-09-07T08:00:14;5.75;;;5.25;;
5454;SDS011;2750;49.050;9.250;2023-09-07T08:05:16;6.07;;;5.50;;
5454;SDS011;2750;49.050;9.250;2023-09-07T08:10:19;5.82;;;5.43;;
5454;SDS011;2750;49.050;9.250;2023-09-07T08:15:21;6.18;;;5.43;;
5454;SDS011;2750;49.050;9.250;2023-09-07T08:20:25;6.10;;;5.22;;
5454;SDS011;2750;49.050;9.250;2023-09-07T08:25:28;6.93;;;5.45;;
5454;SDS011;2750;49.050;9.250;2023-09-07T08:30:29;7.50;;;5.53;;
5454;SDS011;2750;49.050;9.250;2023-09-07T08:35:31;5.95;;;5.45;;
5454;SDS011;2750;49.050;9.250;2023-09-07T08:40:36;6.47;;;5.07;;
5454;SDS011;2750;49.050;9.250;2023-09-07T08:45:41;6.85;;;5.18;;
5454;SDS011;2750;49.050;9.250;2023-09-07T08:50:48;6.38;;;5.50;;
5454;SDS011;2750;49.050;9.250;2023-09-07T08:55:53;8.18;;;5.72;;
5454;SDS011;2750;49.050;9.250;2023-09-07T09:00:55;7.25;;;5.97;;
5454;SDS011;2750;49.050;9.250;2023-09-07T09:05:57;6.03;;;5.47;;
5454;SDS011;2750;49.050;9.250;2023-09-07T09:11:01;5.43;;;5.03;;
5454;SDS011;2750;49.050;9.250;2023-09-07T09:16:03;5.45;;;5.15;;
5454;SDS011;2750;49.050;9.250;2023-09-07T09:21:05;5.60;;;5.20;;
5454;SDS011;2750;49.050;9.250;2023-09-07T09:26:08;5.65;;;5.15;;
5454;SDS011;2750;49.050;9.250;2023-09-07T09:31:10;5.63;;;5.20;;
5454;SDS011;2750;49.050;9.250;2023-09-07T09:36:13;5.45;;;5.05;;
5454;SDS011;2750;49.050;9.250;2023-09-07T09:41:17;6.72;;;6.05;;
5454;SDS011;2750;49.050;9.250;2023-09-07T09:46:18;6.20;;;5.70;;
5454;SDS011;2750;49.050;9.250;2023-09-07T09:51:20;5.97;;;5.47;;
5454;SDS011;2750;49.050;9.250;2023-09-07T09:56:24;5.70;;;5.28;;
5454;SDS011;2750;49.050;9.250;2023-09-07T10:01:26;8.18;;;6.32;;
5454;SDS011;2750;49.050;9.250;2023-09-07T10:06:29;6.45;;;5.60;;
5454;SDS011;2750;49.050;9.250;2023-09-07T10:11:32;6.70;;;5.47;;
5454;SDS011;2750;49.050;9.250;2023-09-07T10:16:41;6.07;;;5.57;;
5454;SDS011;2750;49.050;9.250;2023-09-07T10:21:44;5.60;;;5.10;;
5454;SDS011;2750;49.050;9.250;2023-09-07T10:26:47;7.60;;;5.90;;
5454;SDS011;2750;49.050;9.250;2023-09-07T10:32:04;9.07;;;5.97;;
5454;SDS011;2750;49.050;9.250;2023-09-07T10:37:06;5.90;;;5.38;;
5454;SDS011;2750;49.050;9.250;2023-09-07T10:42:20;5.78;;;5.35;;
5454;SDS011;2750;49.050;9.250;2023-09-07T10:47:23;6.10;;;5.63;;
5454;SDS011;2750;49.050;9.250;2023-09-07T10:52:25;5.85;;;5.45;;
5454;SDS011;2750;49.050;9.250;2023-09-07T10:57:28;5.40;;;4.90;;
5454;SDS011;2750;49.050;9.250;2023-09-07T11:02:30;6.32;;;5.22;;
5454;SDS011;2750;49.050;9.250;2023-09-07T11:07:31;5.63;;;5.15;;
5454;SDS011;2750;49.050;9.250;2023-09-07T11:12:38;6.40;;;5.15;;
5454;SDS011;2750;49.050;9.250;2023-09-07T11:17:41;6.97;;;5.13;;
5454;SDS011;2750;49.050;9.250;2023-09-07T11:22:42;5.15;;;4.85;;
5454;SDS011;2750;49.050;9.250;2023-09-07T11:27:45;5.20;;;4.78;;
5454;SDS011;2750;49.050;9.250;2023-09-07T11:32:47;5.65;;;4.95;;
5454;SDS011;2750;49.050;9.250;2023-09-07T11:37:51;5.60;;;5.10;;
5454;SDS011;2750;49.050;9.250;2023-09-07T11:42:54;4.75;;;4.35;;
5454;SDS011;2750;49.050;9.250;2023-09-07T11:47:56;5.05;;;4.65;;
5454;SDS011;2750;49.050;9.250;2023-09-07T11:52:57;5.57;;;5.07;;
5454;SDS011;2750;49.050;9.250;2023-09-07T11:58:00;8.15;;;5.10;;
5454;SDS011;2750;49.050;9.250;2023-09-07T12:03:02;5.05;;;4.65;;
5454;SDS011;2750;49.050;9.250;2023-09-07T12:08:05;7.75;;;5.03;;
5454;SDS011;2750;49.050;9.250;2023-09-07T12:13:08;5.35;;;4.85;;
5454;SDS011;2750;49.050;9.250;2023-09-07T12:18:10;5.43;;;4.93;;
5454;SDS011;2750;49.050;9.250;2023-09-07T12:23:11;5.18;;;4.72;;
5454;SDS011;2750;49.050;9.250;2023-09-07T12:28:14;5.03;;;4.55;;
5454;SDS011;2750;49.050;9.250;2023-09-07T12:33:16;5.65;;;4.78;;
5454;SDS011;2750;49.050;9.250;2023-09-07T12:38:18;5.55;;;4.88;;
5454;SDS011;2750;49.050;9.250;2023-09-07T12:43:23;5.93;;;4.80;;
5454;SDS011;2750;49.050;9.250;2023-09-07T12:48:25;6.88;;;4.45;;
5454;SDS011;2750;49.050;9.250;2023-09-07T12:53:27;5.57;;;5.07;;
5454;SDS011;2750;49.050;9.250;2023-09-07T12:58:30;5.72;;;5.15;;
5454;SDS011;2750;49.050;9.250;2023-09-07T13:03:32;5.28;;;4.88;;
5454;SDS011;2750;49.050;9.250;2023-09-07T13:08:34;4.78;;;4.38;;
5454;SDS011;2750;49.050;9.250;2023-09-07T13:13:37;6.95;;;4.80;;
5454;SDS011;2750;49.050;9.250;2023-09-07T13:18:39;5.80;;;5.15;;
5454;SDS011;2750;49.050;9.250;2023-09-07T13:23:42;5.22;;;4.72;;
5454;SDS011;2750;49.050;9.250;2023-09-07T13:34:08;5.43;;;4.93;;
5454;SDS011;2750;49.050;9.250;2023-09-07T13:39:10;5.68;;;5.13;;
5454;SDS011;2750;49.050;9.250;2023-09-07T13:44:13;5.05;;;4.53;;
5454;SDS011;2750;49.050;9.250;2023-09-07T13:49:15;5.15;;;4.75;;
5454;SDS011;2750;49.050;9.250;2023-09-07T13:54:16;4.93;;;4.53;;
5454;SDS011;2750;49.050;9.250;2023-09-07T13:59:19;6.18;;;4.65;;
5454;SDS011;2750;49.050;9.250;2023-09-07T14:04:21;4.95;;;4.50;;
5454;SDS011;2750;49.050;9.250;2023-09-07T14:09:22;4.88;;;4.47;;
5454;SDS011;2750;49.050;9.250;2023-09-07T14:14:25;5.50;;;5.03;;
5454;SDS011;2750;49.050;9.250;2023-09-07T14:19:27;5.28;;;4.78;;
5454;SDS011;2750;49.050;9.250;2023-09-07T14:24:30;5.07;;;4.68;;
5454;SDS011;2750;49.050;9.250;2023-09-07T14:29:33;4.68;;;4.28;;
5454;SDS011;2750;49.050;9.250;2023-09-07T14:34:35;5.05;;;4.55;;
5454;SDS011;2750;49.050;9.250;2023-09-07T14:39:37;5.45;;;4.47;;
5454;SDS011;2750;49.050;9.250;2023-09-07T14:44:40;5.28;;;4.78;;
5454;SDS011;2750;49.050;9.250;2023-09-07T14:49:41;4.85;;;4.30;;
5454;SDS011;2750;49.050;9.250;2023-09-07T14:54:43;5.95;;;5.43;;
5454;SDS011;2750;49.050;9.250;2023-09-07T14:59:46;5.13;;;4.72;;
5454;SDS011;2750;49.050;9.250;2023-09-07T15:04:48;5.25;;;4.80;;
5454;SDS011;2750;49.050;9.250;2023-09-07T15:09:50;5.78;;;5.28;;
5454;SDS011;2750;49.050;9.250;2023-09-07T15:14:53;5.35;;;4.85;;
5454;SDS011;2750;49.050;9.250;2023-09-07T15:19:57;5.00;;;4.55;;
5454;SDS011;2750;49.050;9.250;2023-09-07T15:24:59;7.18;;;4.90;;
5454;SDS011;2750;49.050;9.250;2023-09-07T15:30:02;6.25;;;5.10;;
5454;SDS011;2750;49.050;9.250;2023-09-07T15:35:05;6.03;;;5.10;;
5454;SDS011;2750;49.050;9.250;2023-09-07T15:40:08;5.63;;;4.55;;
5454;SDS011;2750;49.050;9.250;2023-09-07T15:45:14;6.43;;;5.32;;
5454;SDS011;2750;49.050;9.250;2023-09-07T15:50:15;4.75;;;4.35;;
5454;SDS011;2750;49.050;9.250;2023-09-07T15:55:17;5.88;;;4.22;;
5454;SDS011;2750;49.050;9.250;2023-09-07T16:00:20;5.10;;;4.65;;
5454;SDS011;2750;49.050;9.250;2023-09-07T16:05:22;5.65;;;5.05;;
5454;SDS011;2750;49.050;9.250;2023-09-07T16:10:26;6.60;;;4.75;;
5454;SDS011;2750;49.050;9.250;2023-09-07T16:15:29;6.25;;;4.65;;
5454;SDS011;2750;49.050;9.250;2023-09-07T16:20:31;5.47;;;4.80;;
5454;SDS011;2750;49.050;9.250;2023-09-07T16:25:32;5.35;;;4.43;;
5454;SDS011;2750;49.050;9.250;2023-09-07T16:30:35;4.85;;;4.35;;
5454;SDS011;2750;49.050;9.250;2023-09-07T16:35:36;5.70;;;4.32;;
5454;SDS011;2750;49.050;9.250;2023-09-07T16:40:38;6.53;;;4.80;;
5454;SDS011;2750;49.050;9.250;2023-09-07T16:45:41;4.93;;;4.40;;
5454;SDS011;2750;49.050;9.250;2023-09-07T16:50:44;5.00;;;4.40;;
5454;SDS011;2750;49.050;9.250;2023-09-07T16:55:45;5.55;;;4.85;;
5454;SDS011;2750;49.050;9.250;2023-09-07T17:00:48;6.93;;;4.40;;
5454;SDS011;2750;49.050;9.250;2023-09-07T17:05:50;8.02;;;5.07;;
5454;SDS011;2750;49.050;9.250;2023-09-07T17:10:52;5.25;;;4.72;;
5454;SDS011;2750;49.050;9.250;2023-09-07T17:15:54;8.52;;;5.13;;
5454;SDS011;2750;49.050;9.250;2023-09-07T17:20:56;5.03;;;4.53;;
5454;SDS011;2750;49.050;9.250;2023-09-07T17:25:59;5.47;;;4.93;;
5454;SDS011;2750;49.050;9.250;2023-09-07T17:31:03;6.30;;;5.75;;
5454;SDS011;2750;49.050;9.250;2023-09-07T17:36:04;7.85;;;6.40;;
5454;SDS011;2750;49.050;9.250;2023-09-07T17:41:06;5.93;;;5.43;;
5454;SDS011;2750;49.050;9.250;2023-09-07T17:46:12;6.10;;;5.50;;
5454;SDS011;2750;49.050;9.250;2023-09-07T17:51:13;6.15;;;4.93;;
5454;SDS011;2750;49.050;9.250;2023-09-07T17:56:15;7.80;;;5.18;;
5454;SDS011;2750;49.050;9.250;2023-09-07T18:01:18;4.88;;;4.38;;
5454;SDS011;2750;49.050;9.250;2023-09-07T18:06:20;6.70;;;4.13;;
5454;SDS011;2750;49.050;9.250;2023-09-07T18:11:21;6.53;;;5.03;;
5454;SDS011;2750;49.050;9.250;2023-09-07T18:16:24;5.00;;;4.50;;
5454;SDS011;2750;49.050;9.250;2023-09-07T18:21:27;6.78;;;4.57;;
5454;SDS011;2750;49.050;9.250;2023-09-07T18:26:29;5.72;;;4.47;;
5454;SDS011;2750;49.050;9.250;2023-09-07T18:31:32;5.03;;;4.40;;
5454;SDS011;2750;49.050;9.250;2023-09-07T18:36:34;5.72;;;5.13;;
5454;SDS011;2750;49.050;9.250;2023-09-07T18:41:35;6.97;;;5.15;;
5454;SDS011;2750;49.050;9.250;2023-09-07T18:46:38;6.35;;;5.53;;
5454;SDS011;2750;49.050;9.250;2023-09-07T18:51:41;7.18;;;5.53;;
5454;SDS011;2750;49.050;9.250;2023-09-07T18:56:42;6.45;;;5.25;;
5454;SDS011;2750;49.050;9.250;2023-09-07T19:01:46;4.80;;;4.30;;
5454;SDS011;2750;49.050;9.250;2023-09-07T19:06:48;7.07;;;4.87;;
5454;SDS011;2750;49.050;9.250;2023-09-07T19:11:50;6.17;;;5.57;;
5454;SDS011;2750;49.050;9.250;2023-09-07T19:16:53;9.50;;;5.70;;
5454;SDS011;2750;49.050;9.250;2023-09-07T19:21:55;6.93;;;6.23;;
5454;SDS011;2750;49.050;9.250;2023-09-07T19:26:56;6.47;;;5.73;;
5454;SDS011;2750;49.050;9.250;2023-09-07T19:32:00;6.47;;;5.37;;
5454;SDS011;2750;49.050;9.250;2023-09-07T19:37:02;7.47;;;5.80;;
5454;SDS011;2750;49.050;9.250;2023-09-07T19:42:04;6.87;;;5.73;;
5454;SDS011;2750;49.050;9.250;2023-09-07T19:47:07;8.27;;;6.40;;
5454;SDS011;2750;49.050;9.250;2023-09-07T19:52:09;7.13;;;5.23;;
5454;SDS011;2750;49.050;9.250;2023-09-07T19:57:11;8.23;;;6.20;;
5454;SDS011;2750;49.050;9.250;2023-09-07T20:02:14;8.73;;;6.00;;
5454;SDS011;2750;49.050;9.250;2023-09-07T20:07:15;6.30;;;5.70;;
5454;SDS011;2750;49.050;9.250;2023-09-07T20:12:17;7.07;;;6.27;;
5454;SDS011;2750;49.050;9.250;2023-09-07T20:17:20;6.97;;;5.90;;
5454;SDS011;2750;49.050;9.250;2023-09-07T20:22:21;7.77;;;6.23;;
5454;SDS011;2750;49.050;9.250;2023-09-07T20:27:27;8.37;;;6.03;;
5454;SDS011;2750;49.050;9.250;2023-09-07T20:32:30;6.07;;;5.47;;
5454;SDS011;2750;49.050;9.250;2023-09-07T20:37:31;9.87;;;6.10;;
5454;SDS011;2750;49.050;9.250;2023-09-07T20:42:33;6.47;;;5.77;;
5454;SDS011;2750;49.050;9.250;2023-09-07T20:47:36;8.13;;;6.03;;
5454;SDS011;2750;49.050;9.250;2023-09-07T20:52:37;9.77;;;5.77;;
5454;SDS011;2750;49.050;9.250;2023-09-07T20:57:42;7.27;;;6.20;;
5454;SDS011;2750;49.050;9.250;2023-09-07T21:02:47;7.60;;;5.77;;
5454;SDS011;2750;49.050;9.250;2023-09-07T21:07:48;6.07;;;5.53;;
5454;SDS011;2750;49.050;9.250;2023-09-07T21:12:50;7.37;;;5.77;;
5454;SDS011;2750;49.050;9.250;2023-09-07T21:17:53;8.00;;;6.33;;
5454;SDS011;2750;49.050;9.250;2023-09-07T21:22:54;8.03;;;5.80;;
5454;SDS011;2750;49.050;9.250;2023-09-07T21:27:56;7.87;;;6.03;;
5454;SDS011;2750;49.050;9.250;2023-09-07T21:32:59;6.70;;;6.03;;
5454;SDS011;2750;49.050;9.250;2023-09-07T21:38:00;7.93;;;6.27;;
5454;SDS011;2750;49.050;9.250;2023-09-07T21:43:02;7.97;;;6.67;;
5454;SDS011;2750;49.050;9.250;2023-09-07T21:48:05;9.17;;;6.77;;
5454;SDS011;2750;49.050;9.250;2023-09-07T21:53:07;9.57;;;6.53;;
5454;SDS011;2750;49.050;9.250;2023-09-07T21:58:08;8.10;;;6.53;;
5454;SDS011;2750;49.050;9.250;2023-09-07T22:03:11;7.93;;;7.10;;
5454;SDS011;2750;49.050;9.250;2023-09-07T22:08:13;9.53;;;7.00;;
5454;SDS011;2750;49.050;9.250;2023-09-07T22:13:14;9.77;;;7.60;;
5454;SDS011;2750;49.050;9.250;2023-09-07T22:18:17;11.47;;;7.13;;
5454;SDS011;2750;49.050;9.250;2023-09-07T22:23:19;11.90;;;7.33;;
5454;SDS011;2750;49.050;9.250;2023-09-07T22:28:20;12.07;;;7.80;;
5454;SDS011;2750;49.050;9.250;2023-09-07T22:33:23;8.50;;;7.17;;
5454;SDS011;2750;49.050;9.250;2023-09-07T22:38:25;9.90;;;6.53;;
5454;SDS011;2750;49.050;9.250;2023-09-07T22:43:26;7.57;;;6.87;;
5454;SDS011;2750;49.050;9.250;2023-09-07T22:48:29;7.73;;;6.60;;
5454;SDS011;2750;49.050;9.250;2023-09-07T22:53:30;8.60;;;6.80;;
5454;SDS011;2750;49.050;9.250;2023-09-07T22:58:32;8.57;;;6.60;;
5454;SDS011;2750;49.050;9.250;2023-09-07T23:03:36;7.23;;;6.47;;
5454;SDS011;2750;49.050;9.250;2023-09-07T23:08:38;9.67;;;8.70;;
5454;SDS011;2750;49.050;9.250;2023-09-07T23:13:40;8.80;;;8.00;;
5454;SDS011;2750;49.050;9.250;2023-09-07T23:18:43;8.77;;;7.87;;
5454;SDS011;2750;49.050;9.250;2023-09-07T23:23:45;10.13;;;8.27;;
5454;SDS011;2750;49.050;9.250;2023-09-07T23:28:47;9.67;;;8.10;;
5454;SDS011;2750;49.050;9.250;2023-09-07T23:33:50;11.17;;;8.27;;
5454;SDS011;2750;49.050;9.250;2023-09-07T23:38:52;12.17;;;7.83;;
5454;SDS011;2750;49.050;9.250;2023-09-07T23:43:53;8.73;;;7.93;;
5454;SDS011;2750;49.050;9.250;2023-09-07T23:48:56;9.23;;;7.97;;
5454;SDS011;2750;49.050;9.250;2023-09-07T23:53:57;9.67;;;8.37;;
5454;SDS011;2750;49.050;9.250;2023-09-07T23:58:59;8.73;;;7.83;;
